sensor_id;sensor_type;location;lat;lon;timestamp;temperature;humidity
36670;DHT22;22662;47.412;9.742;2022-08-21T00:01:51;15.80;99.90
36670;DHT22;22662;47.412;9.742;2022-08-21T00:04:17;15.70;99.90
36670;DHT22;22662;47.412;9.742;2022-08-21T00:06:43;15.70;99.90
36670;DHT22;22662;47.412;9.742;2022-08-21T00:09:09;15.60;99.90
36670;DHT22;22662;47.412;9.742;2022-08-21T00:11:37;15.60;99.90
36670;DHT22;22662;47.412;9.742;2022-08-21T00:14:04;15.60;99.90
36670;DHT22;22662;47.412;9.742;2022-08-21T00:16:32;15.50;99.90
36670;DHT22;22662;47.412;9.742;2022-08-21T00:18:58;15.60;99.90
36670;DHT22;22662;47.412;9.742;2022-08-21T00:21:23;15.70;99.90
36670;DHT22;22662;47.412;9.742;2022-08-21T00:23:51;15.70;99.90
36670;DHT22;22662;47.412;9.742;2022-08-21T00:26:17;15.80;99.90
36670;DHT22;22662;47.412;9.742;2022-08-21T00:28:42;15.80;99.90
36670;DHT22;22662;47.412;9.742;2022-08-21T00:31:11;15.90;99.90
36670;DHT22;22662;47.412;9.742;2022-08-21T00:33:37;15.90;99.90
36670;DHT22;22662;47.412;9.742;2022-08-21T00:36:03;15.90;99.90
36670;DHT22;22662;47.412;9.742;2022-08-21T00:38:29;15.90;99.90
36670;DHT22;22662;47.412;9.742;2022-08-21T00:40:58;15.90;99.90
36670;DHT22;22662;47.412;9.742;2022-08-21T00:43:28;15.90;99.90
36670;DHT22;22662;47.412;9.742;2022-08-21T00:45:54;15.80;99.90
36670;DHT22;22662;47.412;9.742;2022-08-21T00:48:22;15.70;99.90
36670;DHT22;22662;47.412;9.742;2022-08-21T00:51:00;15.70;99.90
36670;DHT22;22662;47.412;9.742;2022-08-21T00:53:28;15.60;99.90
36670;DHT22;22662;47.412;9.742;2022-08-21T00:55:57;15.60;99.90
36670;DHT22;22662;47.412;9.742;2022-08-21T00:58:26;15.60;99.90
36670;DHT22;22662;47.412;9.742;2022-08-21T01:00:53;15.50;99.90
36670;DHT22;22662;47.412;9.742;2022-08-21T01:03:22;15.50;99.90
36670;DHT22;22662;47.412;9.742;2022-08-21T01:05:49;15.40;99.90
36670;DHT22;22662;47.412;9.742;2022-08-21T01:08:16;15.30;99.90
36670;DHT22;22662;47.412;9.742;2022-08-21T01:10:44;15.30;99.90
36670;DHT22;22662;47.412;9.742;2022-08-21T01:13:11;15.20;99.90
36670;DHT22;22662;47.412;9.742;2022-08-21T01:15:43;15.30;99.90
36670;DHT22;22662;47.412;9.742;2022-08-21T01:18:11;15.20;99.90
36670;DHT22;22662;47.412;9.742;2022-08-21T01:20:38;15.30;99.90
36670;DHT22;22662;47.412;9.742;2022-08-21T01:23:06;15.30;99.90
36670;DHT22;22662;47.412;9.742;2022-08-21T01:25:33;15.40;99.90
36670;DHT22;22662;47.412;9.742;2022-08-21T01:28:04;15.40;99.90
36670;DHT22;22662;47.412;9.742;2022-08-21T01:30:34;15.40;99.90
36670;DHT22;22662;47.412;9.742;2022-08-21T01:33:00;15.40;99.90
36670;DHT22;22662;47.412;9.742;2022-08-21T01:35:26;15.40;99.90
36670;DHT22;22662;47.412;9.742;2022-08-21T01:37:51;15.40;99.90
36670;DHT22;22662;47.412;9.742;2022-08-21T01:40:18;15.60;99.90
36670;DHT22;22662;47.412;9.742;2022-08-21T01:42:45;15.50;99.90
36670;DHT22;22662;47.412;9.742;2022-08-21T01:45:12;15.50;99.90
36670;DHT22;22662;47.412;9.742;2022-08-21T01:47:39;15.40;99.90
36670;DHT22;22662;47.412;9.742;2022-08-21T01:50:08;15.30;99.90
36670;DHT22;22662;47.412;9.742;2022-08-21T01:52:34;15.30;99.90
36670;DHT22;22662;47.412;9.742;2022-08-21T01:55:00;15.30;99.90
36670;DHT22;22662;47.412;9.742;2022-08-21T01:57:26;15.30;99.90
36670;DHT22;22662;47.412;9.742;2022-08-21T01:59:52;15.30;99.90
36670;DHT22;22662;47.412;9.742;2022-08-21T02:02:18;15.30;99.90
36670;DHT22;22662;47.412;9.742;2022-08-21T02:04:44;15.30;99.90
36670;DHT22;22662;47.412;9.742;2022-08-21T02:07:10;15.40;99.90
36670;DHT22;22662;47.412;9.742;2022-08-21T02:09:35;15.40;99.90
36670;DHT22;22662;47.412;9.742;2022-08-21T02:12:02;15.30;99.90
36670;DHT22;22662;47.412;9.742;2022-08-21T02:14:28;15.20;99.90
36670;DHT22;22662;47.412;9.742;2022-08-21T02:16:53;15.20;99.90
36670;DHT22;22662;47.412;9.742;2022-08-21T02:19:19;15.10;99.90
36670;DHT22;22662;47.412;9.742;2022-08-21T02:21:45;15.20;99.90
36670;DHT22;22662;47.412;9.742;2022-08-21T02:24:11;15.10;99.90
36670;DHT22;22662;47.412;9.742;2022-08-21T02:26:37;15.20;99.90
36670;DHT22;22662;47.412;9.742;2022-08-21T02:29:04;15.20;99.90
36670;DHT22;22662;47.412;9.742;2022-08-21T02:31:30;15.10;99.90
36670;DHT22;22662;47.412;9.742;2022-08-21T02:33:56;15.10;99.90
36670;DHT22;22662;47.412;9.742;2022-08-21T02:36:22;15.00;99.90
36670;DHT22;22662;47.412;9.742;2022-08-21T02:38:48;15.10;99.90
36670;DHT22;22662;47.412;9.742;2022-08-21T02:41:17;15.10;99.90
36670;DHT22;22662;47.412;9.742;2022-08-21T02:43:44;15.00;99.90
36670;DHT22;22662;47.412;9.742;2022-08-21T02:46:12;15.00;99.90
36670;DHT22;22662;47.412;9.742;2022-08-21T02:48:39;15.00;99.90
36670;DHT22;22662;47.412;9.742;2022-08-21T02:51:12;14.90;99.90
36670;DHT22;22662;47.412;9.742;2022-08-21T02:53:38;14.90;99.90
36670;DHT22;22662;47.412;9.742;2022-08-21T02:56:09;14.80;99.90
36670;DHT22;22662;47.412;9.742;2022-08-21T02:58:45;15.00;99.90
36670;DHT22;22662;47.412;9.742;2022-08-21T03:01:11;14.90;99.90
36670;DHT22;22662;47.412;9.742;2022-08-21T03:03:39;15.00;99.90
36670;DHT22;22662;47.412;9.742;2022-08-21T03:06:08;15.10;99.90
36670;DHT22;22662;47.412;9.742;2022-08-21T03:08:35;15.10;99.90
36670;DHT22;22662;47.412;9.742;2022-08-21T03:11:01;15.10;99.90
36670;DHT22;22662;47.412;9.742;2022-08-21T03:13:27;15.10;99.90
36670;DHT22;22662;47.412;9.742;2022-08-21T03:15:53;15.10;99.90
36670;DHT22;22662;47.412;9.742;2022-08-21T03:18:19;15.10;99.90
36670;DHT22;22662;47.412;9.742;2022-08-21T03:20:45;15.00;99.90
36670;DHT22;22662;47.412;9.742;2022-08-21T03:23:12;15.10;99.90
36670;DHT22;22662;47.412;9.742;2022-08-21T03:25:39;15.00;99.90
36670;DHT22;22662;47.412;9.742;2022-08-21T03:28:07;15.00;99.90
36670;DHT22;22662;47.412;9.742;2022-08-21T03:30:33;14.90;99.90
36670;DHT22;22662;47.412;9.742;2022-08-21T03:32:59;14.90;99.90
36670;DHT22;22662;47.412;9.742;2022-08-21T03:35:27;14.80;99.90
36670;DHT22;22662;47.412;9.742;2022-08-21T03:37:53;14.90;99.90
36670;DHT22;22662;47.412;9.742;2022-08-21T03:40:20;14.90;99.90
36670;DHT22;22662;47.412;9.742;2022-08-21T03:42:47;15.00;99.90
36670;DHT22;22662;47.412;9.742;2022-08-21T03:45:17;15.00;99.90
36670;DHT22;22662;47.412;9.742;2022-08-21T03:48:10;15.00;99.90
36670;DHT22;22662;47.412;9.742;2022-08-21T03:50:39;15.10;99.90
36670;DHT22;22662;47.412;9.742;2022-08-21T03:53:05;15.00;99.90
36670;DHT22;22662;47.412;9.742;2022-08-21T03:55:31;14.90;99.90
36670;DHT22;22662;47.412;9.742;2022-08-21T03:57:57;14.80;99.90
36670;DHT22;22662;47.412;9.742;2022-08-21T04:00:23;14.70;99.90
36670;DHT22;22662;47.412;9.742;2022-08-21T04:02:50;14.80;99.90
36670;DHT22;22662;47.412;9.742;2022-08-21T04:05:16;14.80;99.90
36670;DHT22;22662;47.412;9.742;2022-08-21T04:08:01;14.90;99.90
36670;DHT22;22662;47.412;9.742;2022-08-21T04:10:29;14.80;99.90
36670;DHT22;22662;47.412;9.742;2022-08-21T04:12:56;14.70;99.90
36670;DHT22;22662;47.412;9.742;2022-08-21T04:15:23;14.60;99.90
36670;DHT22;22662;47.412;9.742;2022-08-21T04:17:49;14.60;99.90
36670;DHT22;22662;47.412;9.742;2022-08-21T04:20:17;14.70;99.90
36670;DHT22;22662;47.412;9.742;2022-08-21T04:22:43;14.60;99.90
36670;DHT22;22662;47.412;9.742;2022-08-21T04:25:10;14.60;99.90
36670;DHT22;22662;47.412;9.742;2022-08-21T04:27:36;14.50;99.90
36670;DHT22;22662;47.412;9.742;2022-08-21T04:30:03;14.60;99.90
36670;DHT22;22662;47.412;9.742;2022-08-21T04:32:29;14.60;99.90
36670;DHT22;22662;47.412;9.742;2022-08-21T04:35:08;14.60;99.90
36670;DHT22;22662;47.412;9.742;2022-08-21T04:37:35;14.70;99.90
36670;DHT22;22662;47.412;9.742;2022-08-21T04:40:03;14.70;99.90
36670;DHT22;22662;47.412;9.742;2022-08-21T04:42:29;14.70;99.90
36670;DHT22;22662;47.412;9.742;2022-08-21T04:44:55;14.70;99.90
36670;DHT22;22662;47.412;9.742;2022-08-21T04:47:23;14.80;99.90
36670;DHT22;22662;47.412;9.742;2022-08-21T04:49:49;14.80;99.90
36670;DHT22;22662;47.412;9.742;2022-08-21T04:52:21;14.80;99.90
36670;DHT22;22662;47.412;9.742;2022-08-21T04:54:49;14.90;99.90
36670;DHT22;22662;47.412;9.742;2022-08-21T04:57:17;15.00;99.90
36670;DHT22;22662;47.412;9.742;2022-08-21T04:59:49;15.00;99.90
36670;DHT22;22662;47.412;9.742;2022-08-21T05:02:16;15.10;99.90
36670;DHT22;22662;47.412;9.742;2022-08-21T05:04:46;15.20;99.90
36670;DHT22;22662;47.412;9.742;2022-08-21T05:07:19;15.10;99.90
36670;DHT22;22662;47.412;9.742;2022-08-21T05:09:46;15.10;99.90
36670;DHT22;22662;47.412;9.742;2022-08-21T05:12:12;15.10;99.90
36670;DHT22;22662;47.412;9.742;2022-08-21T05:14:38;15.20;99.90
36670;DHT22;22662;47.412;9.742;2022-08-21T05:17:04;15.20;99.90
36670;DHT22;22662;47.412;9.742;2022-08-21T05:19:30;15.30;99.90
36670;DHT22;22662;47.412;9.742;2022-08-21T05:21:57;15.40;99.90
36670;DHT22;22662;47.412;9.742;2022-08-21T05:24:23;15.40;99.90
36670;DHT22;22662;47.412;9.742;2022-08-21T05:26:50;15.50;99.90
36670;DHT22;22662;47.412;9.742;2022-08-21T05:29:16;15.50;99.90
36670;DHT22;22662;47.412;9.742;2022-08-21T05:31:42;15.40;99.90
36670;DHT22;22662;47.412;9.742;2022-08-21T05:34:08;15.50;99.90
36670;DHT22;22662;47.412;9.742;2022-08-21T05:36:34;15.60;99.90
36670;DHT22;22662;47.412;9.742;2022-08-21T05:39:00;15.70;99.90
36670;DHT22;22662;47.412;9.742;2022-08-21T05:41:26;16.00;99.90
36670;DHT22;22662;47.412;9.742;2022-08-21T05:43:52;16.10;99.90
36670;DHT22;22662;47.412;9.742;2022-08-21T05:46:17;16.30;99.90
36670;DHT22;22662;47.412;9.742;2022-08-21T05:48:43;16.50;99.90
36670;DHT22;22662;47.412;9.742;2022-08-21T05:51:13;16.50;99.90
36670;DHT22;22662;47.412;9.742;2022-08-21T05:53:39;16.70;99.90
36670;DHT22;22662;47.412;9.742;2022-08-21T05:56:08;17.00;99.90
36670;DHT22;22662;47.412;9.742;2022-08-21T05:58:35;17.20;99.90
36670;DHT22;22662;47.412;9.742;2022-08-21T06:01:02;17.80;99.90
36670;DHT22;22662;47.412;9.742;2022-08-21T06:03:36;19.30;99.90
36670;DHT22;22662;47.412;9.742;2022-08-21T06:06:03;20.90;99.90
36670;DHT22;22662;47.412;9.742;2022-08-21T06:08:29;21.90;99.90
36670;DHT22;22662;47.412;9.742;2022-08-21T06:10:57;22.40;99.90
36670;DHT22;22662;47.412;9.742;2022-08-21T06:13:24;23.00;99.90
36670;DHT22;22662;47.412;9.742;2022-08-21T06:15:50;23.40;99.90
36670;DHT22;22662;47.412;9.742;2022-08-21T06:18:16;23.70;99.90
36670;DHT22;22662;47.412;9.742;2022-08-21T06:20:42;24.20;99.90
36670;DHT22;22662;47.412;9.742;2022-08-21T06:23:08;24.80;99.90
36670;DHT22;22662;47.412;9.742;2022-08-21T06:25:35;24.80;99.90
36670;DHT22;22662;47.412;9.742;2022-08-21T06:28:06;24.10;99.90
36670;DHT22;22662;47.412;9.742;2022-08-21T06:30:33;23.60;99.90
36670;DHT22;22662;47.412;9.742;2022-08-21T06:32:59;23.30;99.90
36670;DHT22;22662;47.412;9.742;2022-08-21T06:35:25;21.80;99.90
36670;DHT22;22662;47.412;9.742;2022-08-21T06:37:51;20.30;99.90
36670;DHT22;22662;47.412;9.742;2022-08-21T06:40:17;19.60;99.90
36670;DHT22;22662;47.412;9.742;2022-08-21T06:42:43;18.90;99.90
36670;DHT22;22662;47.412;9.742;2022-08-21T06:45:09;18.40;99.90
36670;DHT22;22662;47.412;9.742;2022-08-21T06:47:35;18.20;99.90
36670;DHT22;22662;47.412;9.742;2022-08-21T06:50:01;17.90;99.90
36670;DHT22;22662;47.412;9.742;2022-08-21T06:52:28;17.80;99.90
36670;DHT22;22662;47.412;9.742;2022-08-21T06:54:53;17.90;99.90
36670;DHT22;22662;47.412;9.742;2022-08-21T06:57:19;17.90;99.90
36670;DHT22;22662;47.412;9.742;2022-08-21T06:59:45;17.80;99.90
36670;DHT22;22662;47.412;9.742;2022-08-21T07:02:11;17.80;99.90
36670;DHT22;22662;47.412;9.742;2022-08-21T07:04:36;17.70;99.90
36670;DHT22;22662;47.412;9.742;2022-08-21T07:07:02;17.70;99.90
36670;DHT22;22662;47.412;9.742;2022-08-21T07:09:28;17.80;99.90
36670;DHT22;22662;47.412;9.742;2022-08-21T07:11:54;17.90;99.90
36670;DHT22;22662;47.412;9.742;2022-08-21T07:14:21;18.00;99.90
36670;DHT22;22662;47.412;9.742;2022-08-21T07:16:48;18.00;99.90
36670;DHT22;22662;47.412;9.742;2022-08-21T07:19:14;18.00;99.90
36670;DHT22;22662;47.412;9.742;2022-08-21T07:21:40;18.00;99.90
36670;DHT22;22662;47.412;9.742;2022-08-21T07:24:06;18.00;99.90
36670;DHT22;22662;47.412;9.742;2022-08-21T07:26:31;18.00;99.90
36670;DHT22;22662;47.412;9.742;2022-08-21T07:28:57;18.10;99.90
36670;DHT22;22662;47.412;9.742;2022-08-21T07:31:24;18.20;99.90
36670;DHT22;22662;47.412;9.742;2022-08-21T07:33:50;18.30;99.90
36670;DHT22;22662;47.412;9.742;2022-08-21T07:36:16;18.50;99.90
36670;DHT22;22662;47.412;9.742;2022-08-21T07:38:43;18.50;99.90
36670;DHT22;22662;47.412;9.742;2022-08-21T07:41:24;18.60;99.90
36670;DHT22;22662;47.412;9.742;2022-08-21T07:43:50;18.70;99.90
36670;DHT22;22662;47.412;9.742;2022-08-21T07:46:16;18.70;99.90
36670;DHT22;22662;47.412;9.742;2022-08-21T07:48:42;18.60;99.90
36670;DHT22;22662;47.412;9.742;2022-08-21T07:51:11;18.70;99.90
36670;DHT22;22662;47.412;9.742;2022-08-21T07:53:38;18.70;99.90
36670;DHT22;22662;47.412;9.742;2022-08-21T07:56:05;18.90;99.90
36670;DHT22;22662;47.412;9.742;2022-08-21T07:58:32;19.00;99.90
36670;DHT22;22662;47.412;9.742;2022-08-21T08:00:58;19.20;99.90
36670;DHT22;22662;47.412;9.742;2022-08-21T08:03:24;19.40;99.90
36670;DHT22;22662;47.412;9.742;2022-08-21T08:05:50;19.60;99.90
36670;DHT22;22662;47.412;9.742;2022-08-21T08:08:16;19.50;99.90
36670;DHT22;22662;47.412;9.742;2022-08-21T08:10:43;19.60;99.90
36670;DHT22;22662;47.412;9.742;2022-08-21T08:13:09;19.80;99.90
36670;DHT22;22662;47.412;9.742;2022-08-21T08:15:36;20.00;99.90
36670;DHT22;22662;47.412;9.742;2022-08-21T08:18:01;20.00;99.90
36670;DHT22;22662;47.412;9.742;2022-08-21T08:20:27;20.00;99.90
36670;DHT22;22662;47.412;9.742;2022-08-21T08:22:55;20.00;99.90
36670;DHT22;22662;47.412;9.742;2022-08-21T08:25:22;20.00;99.90
36670;DHT22;22662;47.412;9.742;2022-08-21T08:27:49;20.30;99.90
36670;DHT22;22662;47.412;9.742;2022-08-21T08:30:16;20.40;99.90
36670;DHT22;22662;47.412;9.742;2022-08-21T08:32:44;20.40;99.90
36670;DHT22;22662;47.412;9.742;2022-08-21T08:35:10;20.50;99.90
36670;DHT22;22662;47.412;9.742;2022-08-21T08:37:38;20.80;99.90
36670;DHT22;22662;47.412;9.742;2022-08-21T08:40:11;20.80;99.90
36670;DHT22;22662;47.412;9.742;2022-08-21T08:42:37;20.70;99.90
36670;DHT22;22662;47.412;9.742;2022-08-21T08:45:08;20.70;99.90
36670;DHT22;22662;47.412;9.742;2022-08-21T08:47:37;20.70;99.90
36670;DHT22;22662;47.412;9.742;2022-08-21T08:50:21;20.70;99.90
36670;DHT22;22662;47.412;9.742;2022-08-21T08:52:54;20.60;99.90
36670;DHT22;22662;47.412;9.742;2022-08-21T08:55:36;20.60;99.90
36670;DHT22;22662;47.412;9.742;2022-08-21T08:58:03;20.50;99.90
36670;DHT22;22662;47.412;9.742;2022-08-21T09:00:30;20.60;99.90
36670;DHT22;22662;47.412;9.742;2022-08-21T09:02:57;20.70;99.90
36670;DHT22;22662;47.412;9.742;2022-08-21T09:05:29;20.60;99.90
36670;DHT22;22662;47.412;9.742;2022-08-21T09:08:14;20.50;99.90
36670;DHT22;22662;47.412;9.742;2022-08-21T09:13:39;20.80;99.90
36670;DHT22;22662;47.412;9.742;2022-08-21T09:24:02;21.10;99.90
36670;DHT22;22662;47.412;9.742;2022-08-21T09:29:26;21.30;99.90
36670;DHT22;22662;47.412;9.742;2022-08-21T09:31:54;21.20;99.90
36670;DHT22;22662;47.412;9.742;2022-08-21T09:34:29;21.20;99.90
36670;DHT22;22662;47.412;9.742;2022-08-21T09:36:56;21.20;99.90
36670;DHT22;22662;47.412;9.742;2022-08-21T09:39:31;21.30;99.90
36670;DHT22;22662;47.412;9.742;2022-08-21T09:42:03;21.20;99.90
36670;DHT22;22662;47.412;9.742;2022-08-21T09:44:32;21.20;99.90
36670;DHT22;22662;47.412;9.742;2022-08-21T09:46:59;21.30;99.90
36670;DHT22;22662;47.412;9.742;2022-08-21T09:49:43;21.30;99.90
36670;DHT22;22662;47.412;9.742;2022-08-21T09:52:20;21.60;99.90
36670;DHT22;22662;47.412;9.742;2022-08-21T09:54:50;21.50;99.90
36670;DHT22;22662;47.412;9.742;2022-08-21T09:57:24;21.50;99.90
36670;DHT22;22662;47.412;9.742;2022-08-21T10:00:10;21.50;99.90
36670;DHT22;22662;47.412;9.742;2022-08-21T10:02:40;21.60;99.90
36670;DHT22;22662;47.412;9.742;2022-08-21T10:07:43;22.10;99.90
36670;DHT22;22662;47.412;9.742;2022-08-21T10:10:16;22.30;99.90
36670;DHT22;22662;47.412;9.742;2022-08-21T10:12:54;22.40;99.90
36670;DHT22;22662;47.412;9.742;2022-08-21T10:21:05;22.40;99.90
36670;DHT22;22662;47.412;9.742;2022-08-21T10:48:49;22.70;99.90
36670;DHT22;22662;47.412;9.742;2022-08-21T10:56:32;22.60;99.90
36670;DHT22;22662;47.412;9.742;2022-08-21T11:01:39;23.10;99.90
36670;DHT22;22662;47.412;9.742;2022-08-21T11:04:12;23.20;99.90
36670;DHT22;22662;47.412;9.742;2022-08-21T11:06:46;23.20;99.90
36670;DHT22;22662;47.412;9.742;2022-08-21T11:09:18;23.10;99.90
36670;DHT22;22662;47.412;9.742;2022-08-21T11:11:57;23.00;99.90
36670;DHT22;22662;47.412;9.742;2022-08-21T11:17:40;23.30;99.90
36670;DHT22;22662;47.412;9.742;2022-08-21T11:22:43;23.70;99.90
36670;DHT22;22662;47.412;9.742;2022-08-21T11:25:21;23.40;99.90
36670;DHT22;22662;47.412;9.742;2022-08-21T11:27:56;23.40;99.90
36670;DHT22;22662;47.412;9.742;2022-08-21T11:30:31;23.30;99.90
36670;DHT22;22662;47.412;9.742;2022-08-21T11:36:34;23.70;99.90
36670;DHT22;22662;47.412;9.742;2022-08-21T11:39:38;23.50;99.90
36670;DHT22;22662;47.412;9.742;2022-08-21T11:47:16;24.00;99.90
36670;DHT22;22662;47.412;9.742;2022-08-21T11:52:41;24.00;99.90
36670;DHT22;22662;47.412;9.742;2022-08-21T11:55:18;23.70;99.90
36670;DHT22;22662;47.412;9.742;2022-08-21T11:58:07;24.10;99.90
36670;DHT22;22662;47.412;9.742;2022-08-21T12:00:49;24.00;99.90
36670;DHT22;22662;47.412;9.742;2022-08-21T12:03:31;23.80;99.90
36670;DHT22;22662;47.412;9.742;2022-08-21T12:06:01;23.90;99.90
36670;DHT22;22662;47.412;9.742;2022-08-21T12:08:37;24.30;99.90
36670;DHT22;22662;47.412;9.742;2022-08-21T12:14:15;24.40;99.90
36670;DHT22;22662;47.412;9.742;2022-08-21T12:16:40;24.40;99.90
36670;DHT22;22662;47.412;9.742;2022-08-21T12:21:52;24.40;99.90
36670;DHT22;22662;47.412;9.742;2022-08-21T12:24:35;24.80;99.90
36670;DHT22;22662;47.412;9.742;2022-08-21T12:29:48;24.70;99.90
36670;DHT22;22662;47.412;9.742;2022-08-21T12:34:53;24.40;99.90
36670;DHT22;22662;47.412;9.742;2022-08-21T12:37:37;24.30;99.90
36670;DHT22;22662;47.412;9.742;2022-08-21T12:40:18;24.30;99.90
36670;DHT22;22662;47.412;9.742;2022-08-21T12:42:49;24.20;99.90
36670;DHT22;22662;47.412;9.742;2022-08-21T12:48:09;24.20;99.90
36670;DHT22;22662;47.412;9.742;2022-08-21T12:50:48;24.40;99.90
36670;DHT22;22662;47.412;9.742;2022-08-21T12:53:31;24.80;99.90
36670;DHT22;22662;47.412;9.742;2022-08-21T12:56:02;24.80;99.90
36670;DHT22;22662;47.412;9.742;2022-08-21T12:58:30;24.60;99.90
36670;DHT22;22662;47.412;9.742;2022-08-21T13:03:30;24.70;99.90
36670;DHT22;22662;47.412;9.742;2022-08-21T13:05:58;24.70;99.90
36670;DHT22;22662;47.412;9.742;2022-08-21T13:08:26;24.40;99.90
36670;DHT22;22662;47.412;9.742;2022-08-21T13:11:00;24.50;99.90
36670;DHT22;22662;47.412;9.742;2022-08-21T13:13:28;24.70;99.90
36670;DHT22;22662;47.412;9.742;2022-08-21T13:16:05;24.80;99.90
36670;DHT22;22662;47.412;9.742;2022-08-21T13:18:35;24.80;99.90
36670;DHT22;22662;47.412;9.742;2022-08-21T13:21:14;25.00;99.90
36670;DHT22;22662;47.412;9.742;2022-08-21T13:23:41;25.00;99.90
36670;DHT22;22662;47.412;9.742;2022-08-21T13:26:18;25.10;99.90
36670;DHT22;22662;47.412;9.742;2022-08-21T13:28:44;25.20;99.90
36670;DHT22;22662;47.412;9.742;2022-08-21T13:31:18;24.80;99.90
36670;DHT22;22662;47.412;9.742;2022-08-21T13:33:47;25.00;99.90
36670;DHT22;22662;47.412;9.742;2022-08-21T13:36:19;25.00;99.90
36670;DHT22;22662;47.412;9.742;2022-08-21T13:38:46;24.90;99.90
36670;DHT22;22662;47.412;9.742;2022-08-21T13:41:29;24.90;99.90
36670;DHT22;22662;47.412;9.742;2022-08-21T13:43:59;24.80;99.90
36670;DHT22;22662;47.412;9.742;2022-08-21T13:46:29;24.50;99.90
36670;DHT22;22662;47.412;9.742;2022-08-21T13:48:56;24.40;99.90
36670;DHT22;22662;47.412;9.742;2022-08-21T13:51:23;24.30;99.90
36670;DHT22;22662;47.412;9.742;2022-08-21T13:53:52;24.40;99.90
36670;DHT22;22662;47.412;9.742;2022-08-21T13:56:29;24.60;99.90
36670;DHT22;22662;47.412;9.742;2022-08-21T13:58:55;24.70;99.90
36670;DHT22;22662;47.412;9.742;2022-08-21T14:04:06;24.80;99.90
36670;DHT22;22662;47.412;9.742;2022-08-21T14:06:36;24.90;99.90
36670;DHT22;22662;47.412;9.742;2022-08-21T14:09:14;24.90;99.90
36670;DHT22;22662;47.412;9.742;2022-08-21T14:11:49;24.60;99.90
36670;DHT22;22662;47.412;9.742;2022-08-21T14:16:54;24.70;99.90
36670;DHT22;22662;47.412;9.742;2022-08-21T14:21:51;24.80;99.90
36670;DHT22;22662;47.412;9.742;2022-08-21T14:27:04;25.10;99.90
36670;DHT22;22662;47.412;9.742;2022-08-21T14:29:37;24.80;99.90
36670;DHT22;22662;47.412;9.742;2022-08-21T14:32:14;24.90;99.90
36670;DHT22;22662;47.412;9.742;2022-08-21T14:34:40;24.90;99.90
36670;DHT22;22662;47.412;9.742;2022-08-21T14:37:06;25.00;99.90
36670;DHT22;22662;47.412;9.742;2022-08-21T14:39:32;25.10;99.90
36670;DHT22;22662;47.412;9.742;2022-08-21T14:41:59;25.00;99.90
36670;DHT22;22662;47.412;9.742;2022-08-21T14:44:26;25.10;99.90
36670;DHT22;22662;47.412;9.742;2022-08-21T14:46:53;25.20;99.90
36670;DHT22;22662;47.412;9.742;2022-08-21T14:49:20;24.90;99.90
36670;DHT22;22662;47.412;9.742;2022-08-21T14:51:46;24.90;99.90
36670;DHT22;22662;47.412;9.742;2022-08-21T14:54:12;24.80;99.90
36670;DHT22;22662;47.412;9.742;2022-08-21T14:56:38;24.80;99.90
36670;DHT22;22662;47.412;9.742;2022-08-21T14:59:06;25.00;99.90
36670;DHT22;22662;47.412;9.742;2022-08-21T15:01:35;24.90;99.90
36670;DHT22;22662;47.412;9.742;2022-08-21T15:04:01;24.90;99.90
36670;DHT22;22662;47.412;9.742;2022-08-21T15:06:27;25.00;99.90
36670;DHT22;22662;47.412;9.742;2022-08-21T15:08:53;25.00;99.90
36670;DHT22;22662;47.412;9.742;2022-08-21T15:11:20;25.10;99.90
36670;DHT22;22662;47.412;9.742;2022-08-21T15:13:47;24.80;99.90
36670;DHT22;22662;47.412;9.742;2022-08-21T15:16:15;24.80;99.90
36670;DHT22;22662;47.412;9.742;2022-08-21T15:18:41;25.00;99.90
36670;DHT22;22662;47.412;9.742;2022-08-21T15:21:08;24.80;99.90
36670;DHT22;22662;47.412;9.742;2022-08-21T15:23:33;24.60;99.90
36670;DHT22;22662;47.412;9.742;2022-08-21T15:26:00;24.70;99.90
36670;DHT22;22662;47.412;9.742;2022-08-21T15:28:26;24.90;99.90
36670;DHT22;22662;47.412;9.742;2022-08-21T15:30:52;24.70;99.90
36670;DHT22;22662;47.412;9.742;2022-08-21T15:33:19;24.60;99.90
36670;DHT22;22662;47.412;9.742;2022-08-21T15:35:45;24.60;99.90
36670;DHT22;22662;47.412;9.742;2022-08-21T15:38:12;24.50;99.90
36670;DHT22;22662;47.412;9.742;2022-08-21T15:40:38;24.60;99.90
36670;DHT22;22662;47.412;9.742;2022-08-21T15:43:06;24.60;99.90
36670;DHT22;22662;47.412;9.742;2022-08-21T15:45:33;24.80;99.90
36670;DHT22;22662;47.412;9.742;2022-08-21T15:47:59;24.90;99.90
36670;DHT22;22662;47.412;9.742;2022-08-21T15:50:26;25.00;99.90
36670;DHT22;22662;47.412;9.742;2022-08-21T15:52:53;25.00;99.90
36670;DHT22;22662;47.412;9.742;2022-08-21T15:55:19;25.00;99.90
36670;DHT22;22662;47.412;9.742;2022-08-21T15:57:49;24.90;99.90
36670;DHT22;22662;47.412;9.742;2022-08-21T16:00:22;24.80;99.90
36670;DHT22;22662;47.412;9.742;2022-08-21T16:02:53;24.80;99.90
36670;DHT22;22662;47.412;9.742;2022-08-21T16:05:20;24.70;99.90
36670;DHT22;22662;47.412;9.742;2022-08-21T16:07:47;24.80;99.90
36670;DHT22;22662;47.412;9.742;2022-08-21T16:10:16;24.70;99.90
36670;DHT22;22662;47.412;9.742;2022-08-21T16:12:46;24.50;99.90
36670;DHT22;22662;47.412;9.742;2022-08-21T16:15:14;24.50;99.90
36670;DHT22;22662;47.412;9.742;2022-08-21T16:17:42;24.60;99.90
36670;DHT22;22662;47.412;9.742;2022-08-21T16:20:14;24.60;99.90
36670;DHT22;22662;47.412;9.742;2022-08-21T16:22:41;24.60;99.90
36670;DHT22;22662;47.412;9.742;2022-08-21T16:25:07;24.60;99.90
36670;DHT22;22662;47.412;9.742;2022-08-21T16:27:34;24.50;99.90
36670;DHT22;22662;47.412;9.742;2022-08-21T16:30:02;24.40;99.90
36670;DHT22;22662;47.412;9.742;2022-08-21T16:32:28;24.20;99.90
36670;DHT22;22662;47.412;9.742;2022-08-21T16:34:54;24.20;99.90
36670;DHT22;22662;47.412;9.742;2022-08-21T16:37:20;24.20;99.90
36670;DHT22;22662;47.412;9.742;2022-08-21T16:39:47;24.10;99.90
36670;DHT22;22662;47.412;9.742;2022-08-21T16:42:16;24.10;99.90
36670;DHT22;22662;47.412;9.742;2022-08-21T16:44:42;24.20;99.90
36670;DHT22;22662;47.412;9.742;2022-08-21T16:47:08;24.30;99.90
36670;DHT22;22662;47.412;9.742;2022-08-21T16:49:34;24.20;99.90
36670;DHT22;22662;47.412;9.742;2022-08-21T16:52:00;24.20;99.90
36670;DHT22;22662;47.412;9.742;2022-08-21T16:54:26;24.20;99.90
36670;DHT22;22662;47.412;9.742;2022-08-21T16:56:52;24.20;99.90
36670;DHT22;22662;47.412;9.742;2022-08-21T16:59:18;24.20;99.90
36670;DHT22;22662;47.412;9.742;2022-08-21T17:01:44;24.10;99.90
36670;DHT22;22662;47.412;9.742;2022-08-21T17:04:10;24.00;99.90
36670;DHT22;22662;47.412;9.742;2022-08-21T17:06:36;24.00;99.90
36670;DHT22;22662;47.412;9.742;2022-08-21T17:09:01;24.00;99.90
36670;DHT22;22662;47.412;9.742;2022-08-21T17:11:36;23.90;99.90
36670;DHT22;22662;47.412;9.742;2022-08-21T17:14:03;23.80;99.90
36670;DHT22;22662;47.412;9.742;2022-08-21T17:16:29;23.80;99.90
36670;DHT22;22662;47.412;9.742;2022-08-21T17:18:55;23.80;99.90